createdAt,value
2022-12-01T00:00:18.631Z,100171.97
2022-12-01T00:02:47.589Z,100181.94
2022-12-01T00:05:15.226Z,100172.13
2022-12-01T00:07:43.504Z,100173.97
2022-12-01T00:10:12.211Z,100176.34
2022-12-01T00:12:39.719Z,100167.56
2022-12-01T00:15:07.332Z,100172.28
2022-12-01T00:17:35.195Z,100174.66
2022-12-01T00:20:04.761Z,100175.53
2022-12-01T00:22:32.513Z,100170.13
2022-12-01T00:24:59.854Z,100174.66
2022-12-01T00:27:27.857Z,100169.09
2022-12-01T00:29:55.267Z,100169.59
2022-12-01T00:32:22.701Z,100162.16
2022-12-01T00:34:50.067Z,100165.53
2022-12-01T00:37:18.882Z,100168.09
2022-12-01T00:39:46.793Z,100170.81
2022-12-01T00:42:15.429Z,100157.44
2022-12-01T00:44:42.822Z,100166.41
2022-12-01T00:47:10.174Z,100160.84
2022-12-01T00:49:37.558Z,100158.84
2022-12-01T00:52:06.222Z,100162.69
2022-12-01T00:54:35.057Z,100159.84
2022-12-01T00:57:02.446Z,100157.97
2022-12-01T00:59:29.847Z,100161.53
2022-12-01T01:01:57.437Z,100160.84
2022-12-01T01:04:25.202Z,100162.69
2022-12-01T01:06:52.580Z,100161.53
2022-12-01T01:09:19.974Z,100167.09
2022-12-01T01:11:48.779Z,100171.66
2022-12-01T01:14:16.198Z,100169.78
2022-12-01T01:16:43.649Z,100168.09
2022-12-01T01:19:11.076Z,100168.97
2022-12-01T01:21:39.616Z,100178.75
2022-12-01T01:24:07.307Z,100175.03
2022-12-01T01:26:34.827Z,100173.50
2022-12-01T01:29:05.611Z,100174.19
2022-12-01T01:31:33.414Z,100175.19
2022-12-01T01:34:00.952Z,100178.75
2022-12-01T01:36:28.418Z,100171.47
2022-12-01T01:38:55.814Z,100168.78
2022-12-01T01:41:24.331Z,100168.97
2022-12-01T01:43:55.441Z,100177.06
2022-12-01T01:46:25.805Z,100174.19
2022-12-01T01:48:56.843Z,100169.78
2022-12-01T01:51:28.385Z,100171.66
2022-12-01T01:54:00.517Z,100174.34
2022-12-01T01:56:28.494Z,100176.06
2022-12-01T01:58:55.953Z,100179.44
2022-12-01T02:01:24.836Z,100177.75
2022-12-01T02:03:53.799Z,100178.75
2022-12-01T02:06:22.259Z,100180.28
2022-12-01T02:08:49.635Z,100182.13
2022-12-01T02:11:41.774Z,100182.28
2022-12-01T02:14:18.228Z,100184.84
2022-12-01T02:16:54.891Z,100187.69
2022-12-01T02:19:46.034Z,100191.25
2022-12-01T02:22:22.555Z,100188.53
2022-12-01T02:25:19.946Z,100193.25
2022-12-01T02:28:14.056Z,100194.28
2022-12-01T02:30:45.928Z,100194.28
2022-12-01T02:33:18.494Z,100193.41
2022-12-01T02:35:50.423Z,100196.97
2022-12-01T02:38:25.393Z,100192.41
2022-12-01T02:41:02.750Z,100193.41
2022-12-01T02:43:35.741Z,100190.84
2022-12-01T02:46:11.232Z,100193.56
2022-12-01T02:48:41.813Z,100192.06
2022-12-01T02:51:14.491Z,100200.97
2022-12-01T02:53:42.167Z,100198.28
2022-12-01T02:56:12.484Z,100194.91
2022-12-01T02:58:39.847Z,100198.63
2022-12-01T03:01:31.213Z,100204.00
2022-12-01T03:04:24.214Z,100198.63
2022-12-01T03:06:58.809Z,100195.53
2022-12-01T03:09:36.090Z,100205.84
2022-12-01T03:12:15.413Z,100206.53
2022-12-01T03:14:51.263Z,100202.00
2022-12-01T03:17:27.193Z,100205.69
2022-12-01T03:20:00.806Z,100208.25
2022-12-01T03:22:35.691Z,100213.66
2022-12-01T03:25:05.163Z,100207.06
2022-12-01T03:27:35.822Z,100215.34
2022-12-01T03:30:04.714Z,100209.94
2022-12-01T03:32:38.954Z,100210.97
2022-12-01T03:35:11.329Z,100214.34
2022-12-01T03:37:44.235Z,100214.47
2022-12-01T03:40:16.706Z,100222.44
2022-12-01T03:42:48.285Z,100221.28
2022-12-01T03:45:18.501Z,100223.13
2022-12-01T03:47:47.363Z,100223.97
2022-12-01T03:50:15.778Z,100233.78
2022-12-01T03:52:49.598Z,100232.91
2022-12-01T03:55:23.474Z,100236.63
2022-12-01T03:57:56.845Z,100237.47
2022-12-01T04:00:25.134Z,100240.88
2022-12-01T04:02:57.058Z,100245.25
2022-12-01T04:05:25.572Z,100246.94
2022-12-01T04:07:53.333Z,100249.66
2022-12-01T04:10:21.276Z,100251.66
2022-12-01T04:12:49.317Z,100243.56
2022-12-01T04:15:17.478Z,100247.97
2022-12-01T04:17:45.232Z,100247.56
2022-12-01T04:20:15.936Z,100248.28
2022-12-01T04:22:43.629Z,100255.38
2022-12-01T04:25:11.302Z,100260.78
2022-12-01T04:27:39.060Z,100260.59
2022-12-01T04:30:08.200Z,100263.31
2022-12-01T04:32:38.674Z,100263.09
2022-12-01T04:35:06.904Z,100259.59
2022-12-01T04:37:35.741Z,100265.38
2022-12-01T04:40:03.328Z,100261.94
2022-12-01T04:42:30.720Z,100259.91
2022-12-01T04:44:58.439Z,100269.06
2022-12-01T04:47:25.845Z,100273.53
2022-12-01T04:49:53.217Z,100272.81
2022-12-01T04:52:20.675Z,100270.50
2022-12-01T04:54:49.462Z,100270.84
2022-12-01T04:57:16.847Z,100275.91
2022-12-01T04:59:44.240Z,100283.00
2022-12-01T05:02:11.641Z,100281.69
2022-12-01T05:04:39.127Z,100275.44
2022-12-01T05:07:06.569Z,100278.81
2022-12-01T05:09:33.964Z,100289.78
2022-12-01T05:12:02.890Z,100282.84
2022-12-01T05:14:30.297Z,100281.16
2022-12-01T05:16:57.644Z,100284.69
2022-12-01T05:19:25.402Z,100282.53
2022-12-01T05:21:53.729Z,100288.09
2022-12-01T05:24:22.481Z,100285.19
2022-12-01T05:26:49.842Z,100291.56
2022-12-01T05:29:18.920Z,100287.72
2022-12-01T05:31:46.881Z,100286.09
2022-12-01T05:34:14.963Z,100289.16
2022-12-01T05:36:42.341Z,100295.25
2022-12-01T05:39:09.747Z,100291.50
2022-12-01T05:41:37.211Z,100296.75
2022-12-01T05:44:05.109Z,100297.31
2022-12-01T05:46:33.947Z,100292.13
2022-12-01T05:49:01.291Z,100298.75
2022-12-01T05:51:28.701Z,100299.22
2022-12-01T05:53:56.051Z,100305.69
2022-12-01T05:56:23.400Z,100296.72
2022-12-01T05:58:50.815Z,100305.16
2022-12-01T06:01:18.267Z,100304.81
2022-12-01T06:03:47.160Z,100307.22
2022-12-01T06:06:14.554Z,100306.03
2022-12-01T06:08:41.944Z,100303.34
2022-12-01T06:11:09.341Z,100303.53
2022-12-01T06:13:37.081Z,100311.78
2022-12-01T06:16:06.884Z,100312.47
2022-12-01T06:18:35.624Z,100314.22
2022-12-01T06:21:06.149Z,100311.69
2022-12-01T06:23:34.149Z,100319.09
2022-12-01T06:26:01.783Z,100321.78
2022-12-01T06:28:29.244Z,100321.78
2022-12-01T06:31:02.567Z,100320.28
2022-12-01T06:33:31.082Z,100326.19
2022-12-01T06:35:59.107Z,100326.03
2022-12-01T06:38:31.145Z,100326.34
2022-12-01T06:40:58.570Z,100325.19
2022-12-01T06:43:26.051Z,100325.03
2022-12-01T06:45:59.450Z,100332.97
2022-12-01T06:48:28.922Z,100323.88
2022-12-01T06:50:57.711Z,100330.13
2022-12-01T06:53:25.153Z,100331.09
2022-12-01T06:55:54.031Z,100333.81
2022-12-01T06:58:21.473Z,100332.84
2022-12-01T07:00:52.238Z,100335.69
2022-12-01T07:03:20.024Z,100335.69
2022-12-01T07:05:55.664Z,100337.38
2022-12-01T07:08:23.077Z,100339.38
2022-12-01T07:10:58.863Z,100337.38
2022-12-01T07:13:31.513Z,100340.53
2022-12-01T07:16:00.916Z,100334.47
2022-12-01T07:18:28.315Z,100342.84
2022-12-01T07:21:00.076Z,100338.16
2022-12-01T07:23:27.568Z,100337.16
2022-12-01T07:26:00.664Z,100336.63
2022-12-01T07:28:28.530Z,100338.78
2022-12-01T07:31:02.362Z,100335.22
2022-12-01T07:33:30.024Z,100340.09
2022-12-01T07:35:57.557Z,100346.22
2022-12-01T07:38:25.180Z,100351.47
2022-12-01T07:40:52.823Z,100347.66
2022-12-01T07:43:21.676Z,100352.28
2022-12-01T07:45:49.206Z,100358.47
2022-12-01T07:48:16.632Z,100358.09
2022-12-01T07:50:44.011Z,100352.91
2022-12-01T07:53:11.389Z,100356.16
2022-12-01T07:55:38.772Z,100347.81
2022-12-01T07:58:06.131Z,100354.75
2022-12-01T08:00:34.971Z,100351.78
2022-12-01T08:03:02.401Z,100361.25
2022-12-01T08:05:29.875Z,100364.09
2022-12-01T08:07:57.323Z,100357.31
2022-12-01T08:10:24.808Z,100357.31
2022-12-01T08:12:52.277Z,100366.56
2022-12-01T08:15:19.628Z,100370.59
2022-12-01T08:17:48.500Z,100362.50
2022-12-01T08:20:22.353Z,100363.16
2022-12-01T08:22:51.303Z,100360.16
2022-12-01T08:25:18.680Z,100361.72
2022-12-01T08:27:46.070Z,100365.41
2022-12-01T08:30:14.543Z,100369.94
2022-12-01T08:32:42.472Z,100374.66
2022-12-01T08:35:11.688Z,100378.81
2022-12-01T08:37:39.091Z,100378.69
2022-12-01T08:40:08.197Z,100380.44
2022-12-01T08:42:35.562Z,100379.47
2022-12-01T08:45:03.070Z,100382.69
2022-12-01T08:47:31.245Z,100377.81
2022-12-01T08:49:58.651Z,100392.19
2022-12-01T08:52:32.082Z,100382.06
2022-12-01T08:54:59.642Z,100387.88
2022-12-01T08:57:29.094Z,100388.78
2022-12-01T08:59:56.472Z,100391.19
2022-12-01T09:02:24.183Z,100391.31
2022-12-01T09:04:51.772Z,100391.50
2022-12-01T09:07:24.635Z,100398.41
2022-12-01T09:09:55.303Z,100397.25
2022-12-01T09:12:22.693Z,100395.25
2022-12-01T09:14:50.163Z,100393.28
2022-12-01T09:17:18.029Z,100398.81
2022-12-01T09:19:45.686Z,100392.09
2022-12-01T09:22:13.189Z,100395.56
2022-12-01T09:24:40.681Z,100395.66
2022-12-01T09:27:11.173Z,100392.97
2022-12-01T09:29:38.676Z,100410.31
2022-12-01T09:32:06.090Z,100402.75
2022-12-01T09:34:33.712Z,100410.31
2022-12-01T09:37:01.377Z,100410.41
2022-12-01T09:39:29.282Z,100400.47
2022-12-01T09:42:07.464Z,100413.97
2022-12-01T09:44:42.174Z,100415.34
2022-12-01T09:47:17.098Z,100425.13
2022-12-01T09:49:55.710Z,100412.63
2022-12-01T09:52:25.505Z,100424.13
2022-12-01T09:54:53.554Z,100428.53
2022-12-01T09:57:29.713Z,100425.00
2022-12-01T10:00:00.096Z,100429.25
2022-12-01T10:02:34.284Z,100428.22
2022-12-01T10:05:05.485Z,100432.78
2022-12-01T10:07:38.785Z,100432.78
2022-12-01T10:10:12.115Z,100429.25
2022-12-01T10:12:43.285Z,100441.56
2022-12-01T10:15:27.575Z,100443.25
2022-12-01T10:18:07.315Z,100443.25
2022-12-01T10:20:36.868Z,100439.03
2022-12-01T10:23:20.682Z,100443.44
2022-12-01T10:25:56.521Z,100436.16
2022-12-01T10:28:53.182Z,100453.22
2022-12-01T10:31:29.129Z,100449.53
2022-12-01T10:34:02.262Z,100446.81
2022-12-01T10:36:32.807Z,100458.31
2022-12-01T10:39:00.588Z,100462.34
2022-12-01T10:41:30.627Z,100453.22
2022-12-01T10:44:00.802Z,100457.63
2022-12-01T10:46:34.062Z,100454.06
2022-12-01T10:49:08.840Z,100468.56
2022-12-01T10:51:48.960Z,100467.44
2022-12-01T10:54:16.708Z,100463.72
2022-12-01T10:56:47.202Z,100469.28
2022-12-01T10:59:26.744Z,100473.84
2022-12-01T11:01:57.952Z,100488.88
2022-12-01T11:04:34.622Z,100494.97
2022-12-01T11:07:02.490Z,100493.75
2022-12-01T11:09:31.427Z,100495.31
2022-12-01T11:12:00.651Z,100496.22
2022-12-01T11:14:37.020Z,100496.44
2022-12-01T11:17:40.384Z,100506.78
2022-12-01T11:20:31.543Z,100506.78
2022-12-01T11:23:22.638Z,100509.63
2022-12-01T11:25:59.584Z,100510.50
2022-12-01T11:28:27.526Z,100517.47
2022-12-01T11:31:01.334Z,100518.59
2022-12-01T11:33:30.739Z,100532.84
2022-12-01T11:35:59.699Z,100540.22
2022-12-01T11:38:33.633Z,100537.06
2022-12-01T11:41:01.163Z,100543.28
2022-12-01T11:43:31.999Z,100540.75
2022-12-01T11:46:02.536Z,100542.94
2022-12-01T11:48:31.073Z,100548.34
2022-12-01T11:51:06.881Z,100553.13
2022-12-01T11:53:36.867Z,100566.88
2022-12-01T11:56:20.139Z,100558.66
2022-12-01T11:58:49.364Z,100562.16
2022-12-01T12:01:32.605Z,100573.34
2022-12-01T12:04:10.374Z,100571.09
2022-12-01T12:06:50.184Z,100574.97
2022-12-01T12:09:45.424Z,100582.66
2022-12-01T12:12:26.612Z,100581.09
2022-12-01T12:15:03.458Z,100589.06
2022-12-01T12:17:47.384Z,100585.22
2022-12-01T12:20:34.520Z,100595.72
2022-12-01T12:23:22.985Z,100593.44
2022-12-01T12:26:02.305Z,100602.59
2022-12-01T12:28:43.936Z,100602.13
2022-12-01T12:31:23.259Z,100608.69
2022-12-01T12:34:05.618Z,100614.41
2022-12-01T12:36:43.599Z,100616.09
2022-12-01T12:39:29.534Z,100623.63
2022-12-01T12:41:58.554Z,100621.19
2022-12-01T12:44:44.699Z,100629.47
2022-12-01T12:47:25.395Z,100628.59
2022-12-01T12:50:04.175Z,100631.44
2022-12-01T12:52:34.632Z,100640.41
2022-12-01T12:55:14.439Z,100641.53
2022-12-01T12:57:47.124Z,100643.00
2022-12-01T13:00:17.835Z,100648.53
2022-12-01T13:02:49.929Z,100650.47
2022-12-01T13:05:21.561Z,100656.34
2022-12-01T13:07:53.957Z,100658.91
2022-12-01T13:10:32.727Z,100672.88
2022-12-01T13:13:11.052Z,100671.78
2022-12-01T13:15:41.134Z,100677.03
2022-12-01T13:18:25.824Z,100681.03
2022-12-01T13:20:56.042Z,100690.41
2022-12-01T13:23:25.104Z,100700.78
2022-12-01T13:25:56.041Z,100692.28
2022-12-01T13:28:26.816Z,100702.78
2022-12-01T13:31:06.579Z,100700.09
2022-12-01T13:33:35.852Z,100700.69
2022-12-01T13:36:44.535Z,100704.25
2022-12-01T13:38:59.602Z,100707.81
2022-12-01T13:41:32.412Z,100708.81
2022-12-01T13:44:03.523Z,100704.78
2022-12-01T13:46:49.460Z,100705.94
2022-12-01T13:49:34.914Z,100714.47
2022-12-01T13:52:29.514Z,100717.59
2022-12-01T13:55:25.261Z,100715.19
2022-12-01T13:58:40.624Z,100717.75
2022-12-01T14:01:45.018Z,100722.31
2022-12-01T14:04:39.528Z,100719.75
2022-12-01T14:07:37.825Z,100719.63
2022-12-01T14:10:27.547Z,100730.00
2022-12-01T14:12:59.991Z,100734.84
2022-12-01T14:15:38.570Z,100739.25
2022-12-01T14:18:19.086Z,100749.78
2022-12-01T14:20:48.632Z,100753.91
2022-12-01T14:23:18.207Z,100750.59
2022-12-01T14:26:11.456Z,100752.75
2022-12-01T14:29:18.433Z,100756.88
2022-12-01T14:32:19.163Z,100764.13
2022-12-01T14:34:51.927Z,100768.06
2022-12-01T14:37:21.816Z,100762.72
2022-12-01T14:39:52.312Z,100773.22
2022-12-01T14:42:28.768Z,100772.09
2022-12-01T14:44:57.616Z,100778.88
2022-12-01T14:47:29.954Z,100779.06
2022-12-01T14:50:01.679Z,100778.88
2022-12-01T14:52:33.934Z,100783.59
2022-12-01T14:55:03.506Z,100791.38
2022-12-01T14:57:34.673Z,100788.84
2022-12-01T15:00:07.651Z,100792.38
2022-12-01T15:02:41.713Z,100789.69
2022-12-01T15:05:14.521Z,100797.78
2022-12-01T15:07:44.364Z,100793.25
2022-12-01T15:10:17.775Z,100799.78
2022-12-01T15:12:45.866Z,100801.50
2022-12-01T15:15:22.446Z,100805.06
2022-12-01T15:17:52.206Z,100797.50
2022-12-01T15:20:33.765Z,100802.84
2022-12-01T15:23:08.176Z,100798.84
2022-12-01T15:25:36.215Z,100806.38
2022-12-01T15:28:12.665Z,100795.97
2022-12-01T15:30:41.714Z,100803.94
2022-12-01T15:33:16.151Z,100802.94
2022-12-01T15:36:28.642Z,100806.50
2022-12-01T15:38:56.418Z,100805.50
2022-12-01T15:41:31.696Z,100814.59
2022-12-01T15:44:00.198Z,100819.00
2022-12-01T15:46:29.769Z,100813.59
2022-12-01T15:49:07.607Z,100816.44
2022-12-01T15:51:36.744Z,100811.91
2022-12-01T15:54:04.388Z,100818.00
2022-12-01T15:56:36.049Z,100823.41
2022-12-01T15:59:08.649Z,100815.31
2022-12-01T16:01:37.406Z,100812.75
2022-12-01T16:04:07.466Z,100817.31
2022-12-01T16:06:39.394Z,100824.25
2022-12-01T16:09:19.957Z,100818.16
2022-12-01T16:12:06.665Z,100814.88
2022-12-01T16:14:34.942Z,100817.75
2022-12-01T16:17:02.647Z,100822.41
2022-12-01T16:19:31.736Z,100823.97
2022-12-01T16:22:15.736Z,100822.72
2022-12-01T16:24:48.918Z,100822.84
2022-12-01T16:27:22.775Z,100824.28
2022-12-01T16:29:53.445Z,100827.69
2022-12-01T16:32:27.437Z,100825.13
2022-12-01T16:34:54.898Z,100822.97
2022-12-01T16:37:23.869Z,100829.69
2022-12-01T16:39:51.426Z,100835.78
2022-12-01T16:42:21.391Z,100832.66
2022-12-01T16:44:50.498Z,100835.78
2022-12-01T16:47:36.336Z,100835.50
2022-12-01T16:50:04.229Z,100849.00
2022-12-01T16:52:43.572Z,100834.78
2022-12-01T16:55:30.246Z,100841.31
2022-12-01T16:57:57.754Z,100837.63
2022-12-01T17:00:25.750Z,100840.50
2022-12-01T17:02:53.511Z,100843.03
2022-12-01T17:05:21.156Z,100842.31
2022-12-01T17:07:50.873Z,100849.03
2022-12-01T17:10:20.721Z,100848.72
2022-12-01T17:12:48.253Z,100849.72
2022-12-01T17:15:15.976Z,100858.81
2022-12-01T17:17:43.484Z,100857.25
2022-12-01T17:20:11.884Z,100862.66
2022-12-01T17:22:39.982Z,100863.66
2022-12-01T17:25:10.142Z,100869.75
2022-12-01T17:27:38.514Z,100872.88
2022-12-01T17:30:07.649Z,100864.34
2022-12-01T17:32:35.270Z,100862.78
2022-12-01T17:35:04.238Z,100865.50
2022-12-01T17:37:32.126Z,100879.00
2022-12-01T17:40:00.592Z,100880.00
2022-12-01T17:42:32.671Z,100879.88
2022-12-01T17:45:00.397Z,100877.72
2022-12-01T17:47:28.587Z,100886.25
2022-12-01T17:49:56.695Z,100886.81
2022-12-01T17:52:28.195Z,100899.06
2022-12-01T17:54:56.297Z,100899.19
2022-12-01T17:57:24.358Z,100904.59
2022-12-01T17:59:53.478Z,100909.00
2022-12-01T18:02:21.283Z,100905.72
2022-12-01T18:04:49.130Z,100907.84
2022-12-01T18:07:17.119Z,100915.13
2022-12-01T18:09:44.835Z,100911.41
2022-12-01T18:12:12.382Z,100920.50
2022-12-01T18:14:40.280Z,100913.00
2022-12-01T18:17:09.838Z,100926.34
2022-12-01T18:19:37.551Z,100926.34
2022-12-01T18:22:05.114Z,100922.22
2022-12-01T18:24:32.678Z,100925.50
2022-12-01T18:27:00.216Z,100920.09
2022-12-01T18:29:27.738Z,100922.91
2022-12-01T18:31:56.314Z,100927.91
2022-12-01T18:34:26.720Z,100939.41
2022-12-01T18:36:54.270Z,100933.84
2022-12-01T18:39:22.169Z,100939.41
2022-12-01T18:41:49.741Z,100933.72
2022-12-01T18:44:17.391Z,100939.81
2022-12-01T18:46:45.092Z,100934.56
2022-12-01T18:49:13.390Z,100937.72
2022-12-01T18:51:42.490Z,100941.97
2022-12-01T18:54:13.918Z,100947.53
2022-12-01T18:56:41.809Z,100947.06
2022-12-01T18:59:11.881Z,100944.25
2022-12-01T19:01:41.193Z,100958.59
2022-12-01T19:04:10.467Z,100964.97
2022-12-01T19:06:39.869Z,100970.13
2022-12-01T19:09:10.497Z,100964.97
2022-12-01T19:11:39.200Z,100964.97
2022-12-01T19:14:07.249Z,100966.69
2022-12-01T19:16:35.696Z,100967.25
2022-12-01T19:19:03.581Z,100981.91
2022-12-01T19:21:31.429Z,100979.22
2022-12-01T19:23:59.017Z,100976.78
2022-12-01T19:26:28.400Z,100992.56
2022-12-01T19:28:55.973Z,100980.34
2022-12-01T19:31:24.722Z,100990.19
2022-12-01T19:33:53.957Z,100989.56
2022-12-01T19:36:23.902Z,100993.09
2022-12-01T19:38:52.139Z,100997.38
2022-12-01T19:41:20.487Z,100999.00
2022-12-01T19:43:49.518Z,101003.19
2022-12-01T19:46:19.476Z,101002.31
2022-12-01T19:48:47.614Z,101010.56
2022-12-01T19:51:19.030Z,101006.56
2022-12-01T19:53:47.354Z,101012.28
2022-12-01T19:56:15.097Z,101018.91
2022-12-01T19:58:43.522Z,101022.09
2022-12-01T20:01:14.619Z,101026.63
2022-12-01T20:03:44.458Z,101030.44
2022-12-01T20:06:13.360Z,101030.56
2022-12-01T20:08:40.969Z,101024.16
2022-12-01T20:11:08.693Z,101030.69
2022-12-01T20:13:37.493Z,101032.38
2022-12-01T20:16:07.912Z,101031.97
2022-12-01T20:18:37.665Z,101027.72
2022-12-01T20:21:06.307Z,101026.78
2022-12-01T20:23:34.951Z,101032.25
2022-12-01T20:26:04.405Z,101034.66
2022-12-01T20:28:32.328Z,101041.09
2022-12-01T20:30:59.885Z,101038.66
2022-12-01T20:33:27.394Z,101044.91
2022-12-01T20:35:56.284Z,101047.88
2022-12-01T20:38:27.413Z,101041.78
2022-12-01T20:40:55.409Z,101047.59
2022-12-01T20:43:22.914Z,101059.66
2022-12-01T20:45:50.491Z,101058.41
2022-12-01T20:48:18.426Z,101051.28
2022-12-01T20:50:46.070Z,101058.69
2022-12-01T20:53:15.164Z,101049.28
2022-12-01T20:55:42.664Z,101057.50
2022-12-01T20:58:10.291Z,101058.50
2022-12-01T21:00:40.136Z,101051.25
2022-12-01T21:03:07.701Z,101055.50
2022-12-01T21:05:38.226Z,101053.09
2022-12-01T21:08:07.886Z,101051.84
2022-12-01T21:10:37.099Z,101052.56
2022-12-01T21:13:17.068Z,101062.50
2022-12-01T21:15:51.132Z,101059.78
2022-12-01T21:18:22.368Z,101064.75
2022-12-01T21:20:53.798Z,101073.69
2022-12-01T21:23:21.931Z,101072.44
2022-12-01T21:25:50.888Z,101079.09
2022-12-01T21:28:20.066Z,101076.28
2022-12-01T21:30:48.446Z,101084.50
2022-12-01T21:33:27.220Z,101086.34
2022-12-01T21:35:55.754Z,101089.19
2022-12-01T21:38:23.945Z,101086.19
2022-12-01T21:40:53.483Z,101081.53
2022-12-01T21:43:22.771Z,101082.34
2022-12-01T21:45:53.895Z,101089.69
2022-12-01T21:48:22.734Z,101093.56
2022-12-01T21:50:57.328Z,101102.09
2022-12-01T21:53:27.762Z,101103.94
2022-12-01T21:55:56.950Z,101104.66
2022-12-01T21:58:28.983Z,101104.13
2022-12-01T22:00:58.343Z,101104.66
2022-12-01T22:03:29.331Z,101107.06
2022-12-01T22:06:28.251Z,101112.03
2022-12-01T22:08:51.855Z,101119.97
2022-12-01T22:11:22.742Z,101117.69
2022-12-01T22:13:55.042Z,101124.97
2022-12-01T22:16:28.156Z,101120.25
2022-12-01T22:18:57.637Z,101138.44
2022-12-01T22:21:36.889Z,101126.06
2022-12-01T22:24:29.417Z,101135.59
2022-12-01T22:27:11.910Z,101136.44
2022-12-01T22:29:42.163Z,101131.84
2022-12-01T22:32:38.612Z,101134.53
2022-12-01T22:35:26.120Z,101135.66
2022-12-01T22:37:55.381Z,101134.94
2022-12-01T22:40:32.284Z,101133.22
2022-12-01T22:43:14.145Z,101129.53
2022-12-01T22:45:42.433Z,101132.13
2022-12-01T22:48:30.148Z,101131.78
2022-12-01T22:51:08.194Z,101134.75
2022-12-01T22:53:35.678Z,101141.13
2022-12-01T22:56:18.481Z,101141.00
2022-12-01T22:58:47.767Z,101142.44
2022-12-01T23:01:23.178Z,101142.84
2022-12-01T23:03:53.286Z,101150.66
2022-12-01T23:07:00.620Z,101147.63
2022-12-01T23:09:32.436Z,101157.03
2022-12-01T23:12:14.149Z,101153.75
2022-12-01T23:14:45.728Z,101165.88
2022-12-01T23:17:18.872Z,101160.72
2022-12-01T23:19:46.716Z,101164.53
2022-12-01T23:22:15.693Z,101170.31
2022-12-01T23:24:43.946Z,101175.16
2022-12-01T23:27:12.057Z,101174.00
2022-12-01T23:29:39.522Z,101186.19
2022-12-01T23:32:10.032Z,101189.88
2022-12-01T23:34:38.164Z,101184.81
2022-12-01T23:37:17.324Z,101191.34
2022-12-01T23:39:44.954Z,101188.41
2022-12-01T23:42:13.121Z,101187.56
2022-12-01T23:44:43.489Z,101191.34
2022-12-01T23:47:22.498Z,101189.03
2022-12-01T23:49:58.301Z,101197.50
2022-12-01T23:52:32.365Z,101190.53
2022-12-01T23:55:00.271Z,101193.81
2022-12-01T23:57:27.941Z,101191.44
2022-12-01T23:59:58.561Z,101196.13
